sensor_id;sensor_type;location;lat;lon;timestamp;pressure;altitude;pressure_sealevel;temperature;humidity
61436;BME280;47304;47.456;19.160;2023-07-28T00:00:27;99915.64;;;17.42;57.90
61436;BME280;47304;47.456;19.160;2023-07-28T00:02:53;99915.30;;;17.42;57.90
61436;BME280;47304;47.456;19.160;2023-07-28T00:05:20;99916.06;;;17.40;57.94
61436;BME280;47304;47.456;19.160;2023-07-28T00:07:46;99912.22;;;17.39;57.79
61436;BME280;47304;47.456;19.160;2023-07-28T00:10:13;99908.95;;;17.37;57.86
61436;BME280;47304;47.456;19.160;2023-07-28T00:12:39;99906.58;;;17.34;57.72
61436;BME280;47304;47.456;19.160;2023-07-28T00:15:06;99909.14;;;17.31;57.85
61436;BME280;47304;47.456;19.160;2023-07-28T00:17:32;99911.20;;;17.28;57.93
61436;BME280;47304;47.456;19.160;2023-07-28T00:19:59;99910.17;;;17.27;58.03
61436;BME280;47304;47.456;19.160;2023-07-28T00:22:26;99905.05;;;17.26;57.99
61436;BME280;47304;47.456;19.160;2023-07-28T00:24:52;99897.98;;;17.26;57.95
61436;BME280;47304;47.456;19.160;2023-07-28T00:27:19;99896.20;;;17.26;58.14
61436;BME280;47304;47.456;19.160;2023-07-28T00:29:45;99894.47;;;17.25;58.20
61436;BME280;47304;47.456;19.160;2023-07-28T00:32:12;99895.52;;;17.26;58.21
61436;BME280;47304;47.456;19.160;2023-07-28T00:34:38;99899.54;;;17.27;58.20
61436;BME280;47304;47.456;19.160;2023-07-28T00:37:05;99898.63;;;17.28;58.38
61436;BME280;47304;47.456;19.160;2023-07-28T00:39:31;99901.98;;;17.28;58.33
61436;BME280;47304;47.456;19.160;2023-07-28T00:41:58;99900.73;;;17.28;58.41
61436;BME280;47304;47.456;19.160;2023-07-28T00:44:24;99901.45;;;17.28;58.32
61436;BME280;47304;47.456;19.160;2023-07-28T00:46:51;99900.02;;;17.29;58.36
61436;BME280;47304;47.456;19.160;2023-07-28T00:49:17;99899.23;;;17.30;58.41
61436;BME280;47304;47.456;19.160;2023-07-28T00:51:44;99900.08;;;17.32;58.26
61436;BME280;47304;47.456;19.160;2023-07-28T00:54:12;99897.77;;;17.32;58.29
61436;BME280;47304;47.456;19.160;2023-07-28T00:56:38;99894.17;;;17.34;58.35
61436;BME280;47304;47.456;19.160;2023-07-28T00:59:05;99889.59;;;17.34;58.31
61436;BME280;47304;47.456;19.160;2023-07-28T01:01:39;99885.54;;;17.33;58.34
61436;BME280;47304;47.456;19.160;2023-07-28T01:04:06;99883.42;;;17.32;58.40
61436;BME280;47304;47.456;19.160;2023-07-28T01:06:43;99883.46;;;17.31;58.43
61436;BME280;47304;47.456;19.160;2023-07-28T01:09:16;99881.21;;;17.29;58.54
61436;BME280;47304;47.456;19.160;2023-07-28T01:11:55;99883.91;;;17.28;58.48
61436;BME280;47304;47.456;19.160;2023-07-28T01:14:22;99884.76;;;17.29;58.58
61436;BME280;47304;47.456;19.160;2023-07-28T01:16:49;99886.67;;;17.30;58.70
61436;BME280;47304;47.456;19.160;2023-07-28T01:19:20;99888.11;;;17.30;58.70
61436;BME280;47304;47.456;19.160;2023-07-28T01:21:52;99884.00;;;17.31;58.80
61436;BME280;47304;47.456;19.160;2023-07-28T01:24:26;99881.84;;;17.32;58.67
61436;BME280;47304;47.456;19.160;2023-07-28T01:26:54;99883.41;;;17.33;58.76
61436;BME280;47304;47.456;19.160;2023-07-28T01:29:22;99879.98;;;17.35;58.80
61436;BME280;47304;47.456;19.160;2023-07-28T01:31:49;99878.70;;;17.36;58.73
61436;BME280;47304;47.456;19.160;2023-07-28T01:34:15;99882.42;;;17.35;58.66
61436;BME280;47304;47.456;19.160;2023-07-28T01:36:42;99881.92;;;17.35;58.73
61436;BME280;47304;47.456;19.160;2023-07-28T01:39:08;99880.98;;;17.36;58.71
61436;BME280;47304;47.456;19.160;2023-07-28T01:41:35;99872.39;;;17.34;58.82
61436;BME280;47304;47.456;19.160;2023-07-28T01:44:01;99876.64;;;17.38;58.68
61436;BME280;47304;47.456;19.160;2023-07-28T01:46:28;99873.67;;;17.38;58.70
61436;BME280;47304;47.456;19.160;2023-07-28T01:48:54;99871.08;;;17.37;58.73
61436;BME280;47304;47.456;19.160;2023-07-28T01:51:21;99867.23;;;17.35;58.84
61436;BME280;47304;47.456;19.160;2023-07-28T01:53:47;99868.92;;;17.37;58.89
61436;BME280;47304;47.456;19.160;2023-07-28T01:56:14;99874.92;;;17.37;59.00
61436;BME280;47304;47.456;19.160;2023-07-28T01:58:40;99876.36;;;17.37;59.04
61436;BME280;47304;47.456;19.160;2023-07-28T02:01:07;99877.30;;;17.35;59.13
61436;BME280;47304;47.456;19.160;2023-07-28T02:03:33;99874.52;;;17.34;59.33
61436;BME280;47304;47.456;19.160;2023-07-28T02:06:00;99876.57;;;17.31;59.22
61436;BME280;47304;47.456;19.160;2023-07-28T02:08:27;99873.70;;;17.27;59.39
61436;BME280;47304;47.456;19.160;2023-07-28T02:10:53;99870.20;;;17.26;59.46
61436;BME280;47304;47.456;19.160;2023-07-28T02:13:20;99871.46;;;17.25;59.62
61436;BME280;47304;47.456;19.160;2023-07-28T02:15:46;99871.89;;;17.23;59.64
61436;BME280;47304;47.456;19.160;2023-07-28T02:18:13;99875.46;;;17.22;59.67
61436;BME280;47304;47.456;19.160;2023-07-28T02:20:41;99880.11;;;17.21;59.75
61436;BME280;47304;47.456;19.160;2023-07-28T02:23:08;99874.13;;;17.20;59.73
61436;BME280;47304;47.456;19.160;2023-07-28T02:25:34;99873.72;;;17.16;59.81
61436;BME280;47304;47.456;19.160;2023-07-28T02:28:01;99872.94;;;17.13;60.06
61436;BME280;47304;47.456;19.160;2023-07-28T02:30:27;99871.23;;;17.11;60.00
61436;BME280;47304;47.456;19.160;2023-07-28T02:32:54;99866.30;;;17.06;60.17
61436;BME280;47304;47.456;19.160;2023-07-28T02:35:20;99867.26;;;17.04;60.16
61436;BME280;47304;47.456;19.160;2023-07-28T02:37:47;99861.80;;;16.98;60.30
61436;BME280;47304;47.456;19.160;2023-07-28T02:40:14;99864.61;;;16.92;60.35
61436;BME280;47304;47.456;19.160;2023-07-28T02:42:40;99865.61;;;16.84;60.60
61436;BME280;47304;47.456;19.160;2023-07-28T02:45:07;99870.66;;;16.76;60.76
61436;BME280;47304;47.456;19.160;2023-07-28T02:47:34;99868.40;;;16.64;60.99
61436;BME280;47304;47.456;19.160;2023-07-28T02:50:00;99867.36;;;16.58;61.14
61436;BME280;47304;47.456;19.160;2023-07-28T02:52:27;99861.57;;;16.52;61.34
61436;BME280;47304;47.456;19.160;2023-07-28T02:54:56;99853.41;;;16.47;61.60
61436;BME280;47304;47.456;19.160;2023-07-28T02:57:22;99851.13;;;16.41;61.74
61436;BME280;47304;47.456;19.160;2023-07-28T02:59:49;99848.97;;;16.37;61.91
61436;BME280;47304;47.456;19.160;2023-07-28T03:02:15;99852.77;;;16.34;62.15
61436;BME280;47304;47.456;19.160;2023-07-28T03:04:42;99853.48;;;16.34;62.24
61436;BME280;47304;47.456;19.160;2023-07-28T03:07:08;99857.89;;;16.34;62.40
61436;BME280;47304;47.456;19.160;2023-07-28T03:09:35;99860.55;;;16.34;62.51
61436;BME280;47304;47.456;19.160;2023-07-28T03:12:01;99860.51;;;16.35;62.52
61436;BME280;47304;47.456;19.160;2023-07-28T03:14:28;99865.84;;;16.34;62.76
61436;BME280;47304;47.456;19.160;2023-07-28T03:16:54;99864.75;;;16.35;62.83
61436;BME280;47304;47.456;19.160;2023-07-28T03:19:21;99860.90;;;16.34;62.87
61436;BME280;47304;47.456;19.160;2023-07-28T03:21:47;99863.48;;;16.36;63.03
61436;BME280;47304;47.456;19.160;2023-07-28T03:24:14;99860.27;;;16.37;62.86
61436;BME280;47304;47.456;19.160;2023-07-28T03:26:40;99848.05;;;16.38;63.04
61436;BME280;47304;47.456;19.160;2023-07-28T03:29:07;99842.71;;;16.39;62.97
61436;BME280;47304;47.456;19.160;2023-07-28T03:31:33;99842.01;;;16.39;63.08
61436;BME280;47304;47.456;19.160;2023-07-28T03:34:00;99844.02;;;16.37;63.08
61436;BME280;47304;47.456;19.160;2023-07-28T03:36:26;99849.91;;;16.35;63.30
61436;BME280;47304;47.456;19.160;2023-07-28T03:38:53;99847.95;;;16.35;63.23
61436;BME280;47304;47.456;19.160;2023-07-28T03:41:20;99841.92;;;16.36;63.42
61436;BME280;47304;47.456;19.160;2023-07-28T03:43:46;99839.45;;;16.35;63.41
61436;BME280;47304;47.456;19.160;2023-07-28T03:46:13;99835.92;;;16.36;63.33
61436;BME280;47304;47.456;19.160;2023-07-28T03:48:40;99832.23;;;16.35;63.51
61436;BME280;47304;47.456;19.160;2023-07-28T03:51:06;99837.75;;;16.34;63.51
61436;BME280;47304;47.456;19.160;2023-07-28T03:53:33;99838.64;;;16.34;63.56
61436;BME280;47304;47.456;19.160;2023-07-28T03:55:59;99840.29;;;16.32;63.60
61436;BME280;47304;47.456;19.160;2023-07-28T03:58:26;99845.94;;;16.32;63.80
61436;BME280;47304;47.456;19.160;2023-07-28T04:00:52;99841.30;;;16.33;63.76
61436;BME280;47304;47.456;19.160;2023-07-28T04:03:20;99842.16;;;16.34;63.79
61436;BME280;47304;47.456;19.160;2023-07-28T04:05:46;99847.24;;;16.35;63.77
61436;BME280;47304;47.456;19.160;2023-07-28T04:08:13;99850.55;;;16.37;63.93
61436;BME280;47304;47.456;19.160;2023-07-28T04:10:40;99848.77;;;16.37;63.90
61436;BME280;47304;47.456;19.160;2023-07-28T04:13:06;99848.98;;;16.37;64.04
61436;BME280;47304;47.456;19.160;2023-07-28T04:15:33;99851.61;;;16.37;63.98
61436;BME280;47304;47.456;19.160;2023-07-28T04:17:59;99856.55;;;16.37;64.08
61436;BME280;47304;47.456;19.160;2023-07-28T04:20:26;99857.38;;;16.39;64.12
61436;BME280;47304;47.456;19.160;2023-07-28T04:22:52;99854.29;;;16.42;64.10
61436;BME280;47304;47.456;19.160;2023-07-28T04:25:19;99857.16;;;16.46;64.15
61436;BME280;47304;47.456;19.160;2023-07-28T04:27:45;99860.08;;;16.49;64.05
61436;BME280;47304;47.456;19.160;2023-07-28T04:30:12;99859.30;;;16.50;64.05
61436;BME280;47304;47.456;19.160;2023-07-28T04:32:38;99857.52;;;16.51;64.04
61436;BME280;47304;47.456;19.160;2023-07-28T04:35:06;99851.80;;;16.53;64.09
61436;BME280;47304;47.456;19.160;2023-07-28T04:37:32;99851.52;;;16.56;64.08
61436;BME280;47304;47.456;19.160;2023-07-28T04:39:59;99850.70;;;16.60;64.05
61436;BME280;47304;47.456;19.160;2023-07-28T04:42:25;99852.31;;;16.64;64.04
61436;BME280;47304;47.456;19.160;2023-07-28T04:44:52;99859.75;;;16.69;64.04
61436;BME280;47304;47.456;19.160;2023-07-28T04:47:18;99865.06;;;16.74;64.00
61436;BME280;47304;47.456;19.160;2023-07-28T04:49:45;99864.66;;;16.81;63.97
61436;BME280;47304;47.456;19.160;2023-07-28T04:52:11;99855.48;;;16.85;63.88
61436;BME280;47304;47.456;19.160;2023-07-28T04:54:38;99850.55;;;16.90;63.82
61436;BME280;47304;47.456;19.160;2023-07-28T04:57:05;99847.38;;;16.95;63.69
61436;BME280;47304;47.456;19.160;2023-07-28T04:59:31;99839.22;;;17.01;63.48
61436;BME280;47304;47.456;19.160;2023-07-28T05:01:58;99829.54;;;17.05;63.31
61436;BME280;47304;47.456;19.160;2023-07-28T05:04:24;99827.33;;;17.08;63.28
61436;BME280;47304;47.456;19.160;2023-07-28T05:06:51;99835.28;;;17.13;63.17
61436;BME280;47304;47.456;19.160;2023-07-28T05:09:17;99838.80;;;17.18;63.21
61436;BME280;47304;47.456;19.160;2023-07-28T05:11:44;99839.19;;;17.22;63.08
61436;BME280;47304;47.456;19.160;2023-07-28T05:14:14;99839.95;;;17.25;62.93
61436;BME280;47304;47.456;19.160;2023-07-28T05:16:40;99842.42;;;17.30;62.86
61436;BME280;47304;47.456;19.160;2023-07-28T05:19:07;99840.98;;;17.36;62.86
61436;BME280;47304;47.456;19.160;2023-07-28T05:21:34;99840.39;;;17.42;62.69
61436;BME280;47304;47.456;19.160;2023-07-28T05:24:01;99834.34;;;17.48;62.36
61436;BME280;47304;47.456;19.160;2023-07-28T05:26:27;99829.11;;;17.51;62.24
61436;BME280;47304;47.456;19.160;2023-07-28T05:28:54;99833.08;;;17.53;62.17
61436;BME280;47304;47.456;19.160;2023-07-28T05:31:20;99837.55;;;17.57;62.03
61436;BME280;47304;47.456;19.160;2023-07-28T05:33:47;99833.70;;;17.60;62.09
61436;BME280;47304;47.456;19.160;2023-07-28T05:36:13;99834.27;;;17.64;61.94
61436;BME280;47304;47.456;19.160;2023-07-28T05:38:40;99838.07;;;17.67;61.79
61436;BME280;47304;47.456;19.160;2023-07-28T05:41:06;99839.79;;;17.68;61.93
61436;BME280;47304;47.456;19.160;2023-07-28T05:43:33;99840.23;;;17.70;61.94
61436;BME280;47304;47.456;19.160;2023-07-28T05:46:00;99844.94;;;17.73;61.94
61436;BME280;47304;47.456;19.160;2023-07-28T05:48:27;99848.89;;;17.75;61.96
61436;BME280;47304;47.456;19.160;2023-07-28T05:50:53;99850.50;;;17.80;62.08
61436;BME280;47304;47.456;19.160;2023-07-28T05:53:21;99860.39;;;17.85;62.09
61436;BME280;47304;47.456;19.160;2023-07-28T05:55:48;99866.91;;;17.91;62.15
61436;BME280;47304;47.456;19.160;2023-07-28T05:58:14;99873.65;;;17.95;62.06
61436;BME280;47304;47.456;19.160;2023-07-28T06:00:41;99876.54;;;18.00;61.95
61436;BME280;47304;47.456;19.160;2023-07-28T06:03:10;99872.38;;;18.06;61.98
61436;BME280;47304;47.456;19.160;2023-07-28T06:05:38;99875.63;;;18.13;61.92
61436;BME280;47304;47.456;19.160;2023-07-28T06:08:05;99874.25;;;18.21;61.80
61436;BME280;47304;47.456;19.160;2023-07-28T06:10:32;99866.38;;;18.28;61.59
61436;BME280;47304;47.456;19.160;2023-07-28T06:12:58;99870.39;;;18.34;61.48
61436;BME280;47304;47.456;19.160;2023-07-28T06:15:25;99872.37;;;18.42;61.33
61436;BME280;47304;47.456;19.160;2023-07-28T06:17:51;99874.05;;;18.48;61.22
61436;BME280;47304;47.456;19.160;2023-07-28T06:20:18;99876.74;;;18.56;61.21
61436;BME280;47304;47.456;19.160;2023-07-28T06:22:44;99880.41;;;18.66;61.31
61436;BME280;47304;47.456;19.160;2023-07-28T06:25:11;99882.16;;;18.75;60.90
61436;BME280;47304;47.456;19.160;2023-07-28T06:27:37;99880.23;;;18.88;60.90
61436;BME280;47304;47.456;19.160;2023-07-28T06:30:04;99873.91;;;18.99;60.77
61436;BME280;47304;47.456;19.160;2023-07-28T06:32:31;99866.12;;;19.11;60.56
61436;BME280;47304;47.456;19.160;2023-07-28T06:34:58;99864.80;;;19.25;60.41
61436;BME280;47304;47.456;19.160;2023-07-28T06:37:24;99863.78;;;19.40;59.89
61436;BME280;47304;47.456;19.160;2023-07-28T06:39:51;99858.12;;;19.51;59.53
61436;BME280;47304;47.456;19.160;2023-07-28T06:42:17;99857.13;;;19.61;59.27
61436;BME280;47304;47.456;19.160;2023-07-28T06:44:44;99859.83;;;19.72;58.93
61436;BME280;47304;47.456;19.160;2023-07-28T06:47:10;99868.30;;;19.81;58.83
61436;BME280;47304;47.456;19.160;2023-07-28T06:49:37;99874.07;;;19.91;58.48
61436;BME280;47304;47.456;19.160;2023-07-28T06:52:04;99878.93;;;20.02;58.13
61436;BME280;47304;47.456;19.160;2023-07-28T06:54:31;99879.29;;;20.13;58.27
61436;BME280;47304;47.456;19.160;2023-07-28T06:56:58;99872.07;;;20.26;57.90
61436;BME280;47304;47.456;19.160;2023-07-28T06:59:25;99859.34;;;20.43;57.50
61436;BME280;47304;47.456;19.160;2023-07-28T07:01:51;99849.24;;;20.63;56.80
61436;BME280;47304;47.456;19.160;2023-07-28T07:04:19;99845.49;;;20.78;55.40
61436;BME280;47304;47.456;19.160;2023-07-28T07:06:45;99842.44;;;20.90;53.51
61436;BME280;47304;47.456;19.160;2023-07-28T07:09:12;99838.35;;;21.00;52.99
61436;BME280;47304;47.456;19.160;2023-07-28T07:11:38;99836.06;;;21.10;52.33
61436;BME280;47304;47.456;19.160;2023-07-28T07:14:05;99833.59;;;21.19;51.77
61436;BME280;47304;47.456;19.160;2023-07-28T07:16:32;99834.23;;;21.27;51.61
61436;BME280;47304;47.456;19.160;2023-07-28T07:18:58;99833.80;;;21.39;51.22
61436;BME280;47304;47.456;19.160;2023-07-28T07:21:27;99829.41;;;21.51;51.05
61436;BME280;47304;47.456;19.160;2023-07-28T07:23:53;99826.64;;;21.63;51.06
61436;BME280;47304;47.456;19.160;2023-07-28T07:26:20;99828.64;;;21.75;50.36
61436;BME280;47304;47.456;19.160;2023-07-28T07:28:47;99830.15;;;21.87;50.21
61436;BME280;47304;47.456;19.160;2023-07-28T07:31:14;99828.55;;;22.02;49.72
61436;BME280;47304;47.456;19.160;2023-07-28T07:33:41;99823.66;;;22.17;49.25
61436;BME280;47304;47.456;19.160;2023-07-28T07:36:12;99824.13;;;22.27;48.85
61436;BME280;47304;47.456;19.160;2023-07-28T07:38:39;99819.17;;;22.33;48.58
61436;BME280;47304;47.456;19.160;2023-07-28T07:41:06;99815.54;;;22.34;48.80
61436;BME280;47304;47.456;19.160;2023-07-28T07:43:33;99814.65;;;22.34;48.58
61436;BME280;47304;47.456;19.160;2023-07-28T07:45:59;99812.87;;;22.34;49.21
61436;BME280;47304;47.456;19.160;2023-07-28T07:48:26;99806.36;;;22.39;49.29
61436;BME280;47304;47.456;19.160;2023-07-28T07:50:53;99803.42;;;22.52;49.07
61436;BME280;47304;47.456;19.160;2023-07-28T07:53:19;99799.52;;;22.76;48.33
61436;BME280;47304;47.456;19.160;2023-07-28T07:55:46;99801.45;;;22.95;47.95
61436;BME280;47304;47.456;19.160;2023-07-28T07:58:12;99805.18;;;23.09;47.30
61436;BME280;47304;47.456;19.160;2023-07-28T08:00:39;99809.29;;;23.19;46.54
61436;BME280;47304;47.456;19.160;2023-07-28T08:03:05;99806.57;;;23.25;46.17
61436;BME280;47304;47.456;19.160;2023-07-28T08:05:32;99805.30;;;23.29;46.13
61436;BME280;47304;47.456;19.160;2023-07-28T08:07:58;99806.04;;;23.34;45.98
61436;BME280;47304;47.456;19.160;2023-07-28T08:10:25;99802.41;;;23.38;46.05
61436;BME280;47304;47.456;19.160;2023-07-28T08:12:53;99803.66;;;23.38;45.88
61436;BME280;47304;47.456;19.160;2023-07-28T08:15:20;99810.19;;;23.39;45.59
61436;BME280;47304;47.456;19.160;2023-07-28T08:17:46;99808.69;;;23.37;45.16
61436;BME280;47304;47.456;19.160;2023-07-28T08:20:13;99809.23;;;23.34;45.39
61436;BME280;47304;47.456;19.160;2023-07-28T08:22:40;99810.63;;;23.38;45.31
61436;BME280;47304;47.456;19.160;2023-07-28T08:25:06;99811.10;;;23.41;45.10
61436;BME280;47304;47.456;19.160;2023-07-28T08:27:33;99810.66;;;23.48;45.15
61436;BME280;47304;47.456;19.160;2023-07-28T08:29:59;99805.29;;;23.57;45.31
61436;BME280;47304;47.456;19.160;2023-07-28T08:32:26;99805.80;;;23.66;45.33
61436;BME280;47304;47.456;19.160;2023-07-28T08:34:52;99809.31;;;23.78;44.71
61436;BME280;47304;47.456;19.160;2023-07-28T08:37:19;99809.11;;;23.87;44.49
61436;BME280;47304;47.456;19.160;2023-07-28T08:39:46;99804.77;;;23.96;44.29
61436;BME280;47304;47.456;19.160;2023-07-28T08:42:12;99808.54;;;24.02;44.11
61436;BME280;47304;47.456;19.160;2023-07-28T08:44:39;99812.13;;;24.04;43.71
61436;BME280;47304;47.456;19.160;2023-07-28T08:47:05;99803.24;;;24.06;43.56
61436;BME280;47304;47.456;19.160;2023-07-28T08:49:32;99796.18;;;24.16;43.77
61436;BME280;47304;47.456;19.160;2023-07-28T08:52:00;99790.69;;;24.31;43.74
61436;BME280;47304;47.456;19.160;2023-07-28T08:54:27;99791.09;;;24.44;43.20
61436;BME280;47304;47.456;19.160;2023-07-28T08:56:54;99786.17;;;24.56;42.95
61436;BME280;47304;47.456;19.160;2023-07-28T08:59:24;99779.45;;;24.65;42.62
61436;BME280;47304;47.456;19.160;2023-07-28T09:01:51;99776.92;;;24.74;42.25
61436;BME280;47304;47.456;19.160;2023-07-28T09:04:22;99780.62;;;24.82;42.23
61436;BME280;47304;47.456;19.160;2023-07-28T09:06:49;99780.55;;;24.86;41.84
61436;BME280;47304;47.456;19.160;2023-07-28T09:09:20;99773.47;;;24.90;41.81
61436;BME280;47304;47.456;19.160;2023-07-28T09:11:49;99771.30;;;24.98;41.60
61436;BME280;47304;47.456;19.160;2023-07-28T09:14:16;99762.79;;;25.02;41.40
61436;BME280;47304;47.456;19.160;2023-07-28T09:16:43;99759.15;;;25.05;41.43
61436;BME280;47304;47.456;19.160;2023-07-28T09:19:11;99750.36;;;25.10;41.36
61436;BME280;47304;47.456;19.160;2023-07-28T09:21:38;99748.42;;;25.18;41.36
61436;BME280;47304;47.456;19.160;2023-07-28T09:24:07;99743.59;;;25.28;41.47
61436;BME280;47304;47.456;19.160;2023-07-28T09:29:30;99751.67;;;25.53;41.42
61436;BME280;47304;47.456;19.160;2023-07-28T09:32:03;99751.83;;;25.68;41.06
61436;BME280;47304;47.456;19.160;2023-07-28T09:34:31;99741.27;;;25.78;40.81
61436;BME280;47304;47.456;19.160;2023-07-28T09:36:58;99744.54;;;25.87;40.85
61436;BME280;47304;47.456;19.160;2023-07-28T09:39:26;99744.41;;;25.98;41.01
61436;BME280;47304;47.456;19.160;2023-07-28T09:41:53;99742.46;;;26.10;40.79
61436;BME280;47304;47.456;19.160;2023-07-28T09:44:20;99736.96;;;26.19;40.74
61436;BME280;47304;47.456;19.160;2023-07-28T09:46:55;99738.88;;;26.27;40.63
61436;BME280;47304;47.456;19.160;2023-07-28T09:49:35;99738.59;;;26.31;40.59
61436;BME280;47304;47.456;19.160;2023-07-28T09:52:05;99736.54;;;26.34;40.84
61436;BME280;47304;47.456;19.160;2023-07-28T09:54:39;99733.23;;;26.40;40.76
61436;BME280;47304;47.456;19.160;2023-07-28T09:57:12;99733.38;;;26.45;40.75
61436;BME280;47304;47.456;19.160;2023-07-28T09:59:40;99726.56;;;26.50;40.76
61436;BME280;47304;47.456;19.160;2023-07-28T10:02:08;99725.70;;;26.56;41.05
61436;BME280;47304;47.456;19.160;2023-07-28T10:04:35;99729.38;;;26.67;40.90
61436;BME280;47304;47.456;19.160;2023-07-28T10:07:04;99727.98;;;26.75;40.77
61436;BME280;47304;47.456;19.160;2023-07-28T10:09:31;99729.84;;;26.82;40.75
61436;BME280;47304;47.456;19.160;2023-07-28T10:12:00;99724.94;;;26.87;40.79
61436;BME280;47304;47.456;19.160;2023-07-28T10:14:28;99723.20;;;26.93;40.68
61436;BME280;47304;47.456;19.160;2023-07-28T10:16:54;99718.91;;;26.97;40.61
61436;BME280;47304;47.456;19.160;2023-07-28T10:19:21;99716.99;;;27.06;40.51
61436;BME280;47304;47.456;19.160;2023-07-28T10:21:48;99714.88;;;27.12;40.36
61436;BME280;47304;47.456;19.160;2023-07-28T10:24:14;99716.48;;;27.22;40.27
61436;BME280;47304;47.456;19.160;2023-07-28T10:26:41;99719.76;;;27.30;40.12
61436;BME280;47304;47.456;19.160;2023-07-28T10:29:13;99719.98;;;27.38;39.89
61436;BME280;47304;47.456;19.160;2023-07-28T10:31:53;99721.23;;;27.47;39.74
61436;BME280;47304;47.456;19.160;2023-07-28T10:34:21;99723.01;;;27.57;39.90
61436;BME280;47304;47.456;19.160;2023-07-28T10:36:57;99730.04;;;27.70;39.59
61436;BME280;47304;47.456;19.160;2023-07-28T10:39:24;99726.41;;;27.79;39.33
61436;BME280;47304;47.456;19.160;2023-07-28T10:42:08;99724.87;;;27.82;39.13
61436;BME280;47304;47.456;19.160;2023-07-28T10:44:36;99724.43;;;27.88;39.36
61436;BME280;47304;47.456;19.160;2023-07-28T10:47:07;99723.29;;;27.95;39.37
61436;BME280;47304;47.456;19.160;2023-07-28T10:49:34;99727.78;;;28.03;39.40
61436;BME280;47304;47.456;19.160;2023-07-28T10:52:00;99726.78;;;28.12;39.24
61436;BME280;47304;47.456;19.160;2023-07-28T10:54:27;99723.20;;;28.22;39.10
61436;BME280;47304;47.456;19.160;2023-07-28T10:56:54;99730.61;;;28.41;38.69
61436;BME280;47304;47.456;19.160;2023-07-28T10:59:20;99730.45;;;28.58;38.59
61436;BME280;47304;47.456;19.160;2023-07-28T11:01:47;99732.71;;;28.80;38.50
61436;BME280;47304;47.456;19.160;2023-07-28T11:04:18;99726.95;;;29.07;38.17
61436;BME280;47304;47.456;19.160;2023-07-28T11:06:47;99721.65;;;29.37;37.98
61436;BME280;47304;47.456;19.160;2023-07-28T11:09:16;99724.41;;;29.72;37.81
61436;BME280;47304;47.456;19.160;2023-07-28T11:11:44;99716.67;;;30.18;36.89
61436;BME280;47304;47.456;19.160;2023-07-28T11:14:15;99716.58;;;30.57;35.81
61436;BME280;47304;47.456;19.160;2023-07-28T11:16:42;99718.02;;;30.81;35.63
61436;BME280;47304;47.456;19.160;2023-07-28T11:19:10;99719.52;;;30.80;35.40
61436;BME280;47304;47.456;19.160;2023-07-28T11:21:38;99722.83;;;30.66;35.13
61436;BME280;47304;47.456;19.160;2023-07-28T11:24:06;99730.41;;;30.48;35.64
61436;BME280;47304;47.456;19.160;2023-07-28T11:26:34;99724.77;;;30.35;35.88
61436;BME280;47304;47.456;19.160;2023-07-28T11:29:01;99722.55;;;30.26;35.85
61436;BME280;47304;47.456;19.160;2023-07-28T11:31:28;99723.14;;;30.18;36.59
61436;BME280;47304;47.456;19.160;2023-07-28T11:33:54;99719.19;;;30.08;36.66
61436;BME280;47304;47.456;19.160;2023-07-28T11:36:25;99712.27;;;29.94;36.63
61436;BME280;47304;47.456;19.160;2023-07-28T11:38:52;99717.02;;;29.78;36.56
61436;BME280;47304;47.456;19.160;2023-07-28T11:41:20;99711.88;;;29.67;36.41
61436;BME280;47304;47.456;19.160;2023-07-28T11:43:48;99707.45;;;29.58;36.60
61436;BME280;47304;47.456;19.160;2023-07-28T11:46:38;99705.23;;;29.51;36.96
61436;BME280;47304;47.456;19.160;2023-07-28T11:51:43;99708.09;;;29.55;37.65
61436;BME280;47304;47.456;19.160;2023-07-28T11:54:15;99711.34;;;29.59;36.93
61436;BME280;47304;47.456;19.160;2023-07-28T11:56:42;99707.15;;;29.60;36.65
61436;BME280;47304;47.456;19.160;2023-07-28T11:59:10;99704.37;;;29.61;36.55
61436;BME280;47304;47.456;19.160;2023-07-28T12:04:27;99697.79;;;29.67;36.93
61436;BME280;47304;47.456;19.160;2023-07-28T12:09:27;99693.20;;;29.66;36.75
61436;BME280;47304;47.456;19.160;2023-07-28T12:11:54;99692.55;;;29.69;36.53
61436;BME280;47304;47.456;19.160;2023-07-28T12:14:31;99690.42;;;29.71;36.33
61436;BME280;47304;47.456;19.160;2023-07-28T12:17:01;99690.92;;;29.71;36.52
61436;BME280;47304;47.456;19.160;2023-07-28T12:19:30;99679.69;;;29.72;36.58
61436;BME280;47304;47.456;19.160;2023-07-28T12:21:57;99679.67;;;29.72;36.42
61436;BME280;47304;47.456;19.160;2023-07-28T12:24:24;99673.73;;;29.72;36.83
61436;BME280;47304;47.456;19.160;2023-07-28T12:26:50;99671.02;;;29.76;36.76
61436;BME280;47304;47.456;19.160;2023-07-28T12:29:18;99671.59;;;29.78;36.36
61436;BME280;47304;47.456;19.160;2023-07-28T12:31:56;99666.42;;;29.77;36.35
61436;BME280;47304;47.456;19.160;2023-07-28T12:34:28;99664.28;;;29.72;36.51
61436;BME280;47304;47.456;19.160;2023-07-28T12:36:55;99662.20;;;29.66;36.61
61436;BME280;47304;47.456;19.160;2023-07-28T12:39:22;99666.02;;;29.60;36.58
61436;BME280;47304;47.456;19.160;2023-07-28T12:41:51;99657.81;;;29.56;36.92
61436;BME280;47304;47.456;19.160;2023-07-28T12:44:21;99659.02;;;29.59;36.94
61436;BME280;47304;47.456;19.160;2023-07-28T12:47:07;99655.63;;;29.65;37.33
61436;BME280;47304;47.456;19.160;2023-07-28T12:49:34;99658.25;;;29.73;37.14
61436;BME280;47304;47.456;19.160;2023-07-28T12:52:03;99661.48;;;29.79;36.73
61436;BME280;47304;47.456;19.160;2023-07-28T12:54:30;99664.39;;;29.85;36.36
61436;BME280;47304;47.456;19.160;2023-07-28T12:56:57;99663.40;;;29.88;36.33
61436;BME280;47304;47.456;19.160;2023-07-28T12:59:27;99666.38;;;29.89;36.36
61436;BME280;47304;47.456;19.160;2023-07-28T13:01:53;99658.38;;;29.86;36.37